sensor_id;sensor_type;location;lat;lon;timestamp;pressure;altitude;pressure_sealevel;temperature;humidity
39265;BME280;42646;51.910;7.724;2023-11-19T00:02:28;100256.59;;;10.43;100.00
39265;BME280;42646;51.910;7.724;2023-11-19T00:04:56;100257.13;;;10.47;100.00
39265;BME280;42646;51.910;7.724;2023-11-19T00:07:24;100260.47;;;10.49;100.00
39265;BME280;42646;51.910;7.724;2023-11-19T00:10:00;100255.88;;;10.51;100.00
39265;BME280;42646;51.910;7.724;2023-11-19T00:12:37;100251.06;;;10.54;100.00
39265;BME280;42646;51.910;7.724;2023-11-19T00:15:06;100232.00;;;10.59;100.00
39265;BME280;42646;51.910;7.724;2023-11-19T00:17:39;100246.97;;;10.60;100.00
39265;BME280;42646;51.910;7.724;2023-11-19T00:20:11;100244.72;;;10.65;100.00
39265;BME280;42646;51.910;7.724;2023-11-19T00:22:40;100250.03;;;10.65;100.00
39265;BME280;42646;51.910;7.724;2023-11-19T00:25:11;100247.09;;;10.68;100.00
39265;BME280;42646;51.910;7.724;2023-11-19T00:27:39;100246.09;;;10.69;100.00
39265;BME280;42646;51.910;7.724;2023-11-19T00:30:07;100247.78;;;10.70;100.00
39265;BME280;42646;51.910;7.724;2023-11-19T00:32:35;100233.47;;;10.71;100.00
39265;BME280;42646;51.910;7.724;2023-11-19T00:35:06;100243.84;;;10.74;100.00
39265;BME280;42646;51.910;7.724;2023-11-19T00:37:34;100235.84;;;10.74;100.00
39265;BME280;42646;51.910;7.724;2023-11-19T00:40:02;100223.06;;;10.78;100.00
39265;BME280;42646;51.910;7.724;2023-11-19T00:42:33;100222.06;;;10.79;100.00
39265;BME280;42646;51.910;7.724;2023-11-19T00:45:00;100214.47;;;10.84;100.00
39265;BME280;42646;51.910;7.724;2023-11-19T00:47:28;100201.06;;;10.85;100.00
39265;BME280;42646;51.910;7.724;2023-11-19T00:49:57;100197.25;;;10.88;100.00
39265;BME280;42646;51.910;7.724;2023-11-19T00:52:26;100182.78;;;10.90;100.00
39265;BME280;42646;51.910;7.724;2023-11-19T00:54:54;100187.97;;;10.92;100.00
39265;BME280;42646;51.910;7.724;2023-11-19T00:57:23;100185.00;;;10.95;100.00
39265;BME280;42646;51.910;7.724;2023-11-19T00:59:53;100174.19;;;10.96;100.00
39265;BME280;42646;51.910;7.724;2023-11-19T01:02:20;100182.88;;;10.99;100.00
39265;BME280;42646;51.910;7.724;2023-11-19T01:04:48;100180.06;;;11.00;100.00
39265;BME280;42646;51.910;7.724;2023-11-19T01:07:16;100177.09;;;11.03;100.00
39265;BME280;42646;51.910;7.724;2023-11-19T01:09:45;100169.94;;;11.04;100.00
39265;BME280;42646;51.910;7.724;2023-11-19T01:12:13;100173.13;;;11.07;100.00
39265;BME280;42646;51.910;7.724;2023-11-19T01:14:42;100178.16;;;11.10;100.00
39265;BME280;42646;51.910;7.724;2023-11-19T01:17:09;100175.16;;;11.13;100.00
39265;BME280;42646;51.910;7.724;2023-11-19T01:19:37;100180.19;;;11.16;100.00
39265;BME280;42646;51.910;7.724;2023-11-19T01:22:05;100174.25;;;11.22;100.00
39265;BME280;42646;51.910;7.724;2023-11-19T01:24:33;100184.44;;;11.27;100.00
39265;BME280;42646;51.910;7.724;2023-11-19T01:27:02;100174.63;;;11.28;100.00
39265;BME280;42646;51.910;7.724;2023-11-19T01:29:30;100170.66;;;11.32;100.00
39265;BME280;42646;51.910;7.724;2023-11-19T01:31:57;100165.19;;;11.33;100.00
39265;BME280;42646;51.910;7.724;2023-11-19T01:34:25;100156.22;;;11.34;100.00
39265;BME280;42646;51.910;7.724;2023-11-19T01:36:53;100168.06;;;11.40;100.00
39265;BME280;42646;51.910;7.724;2023-11-19T01:39:21;100159.25;;;11.39;100.00
39265;BME280;42646;51.910;7.724;2023-11-19T01:41:48;100155.41;;;11.42;100.00
39265;BME280;42646;51.910;7.724;2023-11-19T01:44:18;100156.09;;;11.44;100.00
39265;BME280;42646;51.910;7.724;2023-11-19T01:46:46;100124.81;;;11.46;100.00
39265;BME280;42646;51.910;7.724;2023-11-19T01:49:15;100128.31;;;11.46;100.00
39265;BME280;42646;51.910;7.724;2023-11-19T01:51:45;100137.97;;;11.47;100.00
39265;BME280;42646;51.910;7.724;2023-11-19T01:54:14;100129.69;;;11.50;100.00
39265;BME280;42646;51.910;7.724;2023-11-19T01:56:42;100118.03;;;11.52;100.00
39265;BME280;42646;51.910;7.724;2023-11-19T01:59:12;100122.03;;;11.56;100.00
39265;BME280;42646;51.910;7.724;2023-11-19T02:01:42;100112.91;;;11.58;100.00
39265;BME280;42646;51.910;7.724;2023-11-19T02:04:11;100106.41;;;11.61;100.00
39265;BME280;42646;51.910;7.724;2023-11-19T02:06:41;100105.41;;;11.62;100.00
39265;BME280;42646;51.910;7.724;2023-11-19T02:09:10;100087.63;;;11.62;100.00
39265;BME280;42646;51.910;7.724;2023-11-19T02:11:39;100090.97;;;11.64;100.00
39265;BME280;42646;51.910;7.724;2023-11-19T02:14:07;100099.63;;;11.66;100.00
39265;BME280;42646;51.910;7.724;2023-11-19T02:16:35;100098.63;;;11.67;100.00
39265;BME280;42646;51.910;7.724;2023-11-19T02:19:04;100103.81;;;11.69;100.00
39265;BME280;42646;51.910;7.724;2023-11-19T02:21:32;100105.16;;;11.73;100.00
39265;BME280;42646;51.910;7.724;2023-11-19T02:24:02;100093.53;;;11.74;100.00
39265;BME280;42646;51.910;7.724;2023-11-19T02:26:39;100093.19;;;11.77;100.00
39265;BME280;42646;51.910;7.724;2023-11-19T02:29:12;100100.88;;;11.80;100.00
39265;BME280;42646;51.910;7.724;2023-11-19T02:31:40;100089.34;;;11.80;100.00
39265;BME280;42646;51.910;7.724;2023-11-19T02:34:10;100092.09;;;11.88;100.00
39265;BME280;42646;51.910;7.724;2023-11-19T02:36:39;100094.94;;;11.86;100.00
39265;BME280;42646;51.910;7.724;2023-11-19T02:39:07;100089.09;;;11.91;100.00
39265;BME280;42646;51.910;7.724;2023-11-19T02:41:38;100097.63;;;11.94;100.00
39265;BME280;42646;51.910;7.724;2023-11-19T02:44:06;100075.28;;;11.95;100.00
39265;BME280;42646;51.910;7.724;2023-11-19T02:46:35;100081.28;;;11.97;100.00
39265;BME280;42646;51.910;7.724;2023-11-19T02:49:03;100087.31;;;11.99;100.00
39265;BME280;42646;51.910;7.724;2023-11-19T02:51:33;100070.97;;;12.02;100.00
39265;BME280;42646;51.910;7.724;2023-11-19T02:54:02;100049.81;;;12.09;100.00
39265;BME280;42646;51.910;7.724;2023-11-19T02:56:30;100057.16;;;12.07;100.00
39265;BME280;42646;51.910;7.724;2023-11-19T02:59:02;100048.03;;;12.10;100.00
39265;BME280;42646;51.910;7.724;2023-11-19T03:01:36;100045.19;;;12.11;100.00
39265;BME280;42646;51.910;7.724;2023-11-19T03:04:04;100036.00;;;12.14;100.00
39265;BME280;42646;51.910;7.724;2023-11-19T03:06:32;100038.50;;;12.15;100.00
39265;BME280;42646;51.910;7.724;2023-11-19T03:09:00;100042.88;;;12.16;100.00
39265;BME280;42646;51.910;7.724;2023-11-19T03:11:33;100028.72;;;12.16;100.00
39265;BME280;42646;51.910;7.724;2023-11-19T03:14:00;100031.69;;;12.21;100.00
39265;BME280;42646;51.910;7.724;2023-11-19T03:16:29;100038.72;;;12.22;100.00
39265;BME280;42646;51.910;7.724;2023-11-19T03:18:58;100042.22;;;12.22;100.00
39265;BME280;42646;51.910;7.724;2023-11-19T03:21:28;100043.53;;;12.26;100.00
39265;BME280;42646;51.910;7.724;2023-11-19T03:23:56;100045.38;;;12.26;100.00
39265;BME280;42646;51.910;7.724;2023-11-19T03:26:26;100034.56;;;12.27;100.00
39265;BME280;42646;51.910;7.724;2023-11-19T03:28:54;100039.72;;;12.29;100.00
39265;BME280;42646;51.910;7.724;2023-11-19T03:31:23;100034.38;;;12.29;100.00
39265;BME280;42646;51.910;7.724;2023-11-19T03:33:51;100035.06;;;12.31;100.00
39265;BME280;42646;51.910;7.724;2023-11-19T03:36:24;100040.72;;;12.36;100.00
39265;BME280;42646;51.910;7.724;2023-11-19T03:38:51;100048.41;;;12.39;100.00
39265;BME280;42646;51.910;7.724;2023-11-19T03:41:19;100046.06;;;12.44;100.00
39265;BME280;42646;51.910;7.724;2023-11-19T03:43:47;100054.22;;;12.43;100.00
39265;BME280;42646;51.910;7.724;2023-11-19T03:46:18;100055.25;;;12.42;100.00
39265;BME280;42646;51.910;7.724;2023-11-19T03:48:48;100055.09;;;12.51;100.00
39265;BME280;42646;51.910;7.724;2023-11-19T03:51:16;100055.09;;;12.51;100.00
39265;BME280;42646;51.910;7.724;2023-11-19T03:53:45;100065.94;;;12.66;100.00
39265;BME280;42646;51.910;7.724;2023-11-19T03:56:13;100071.59;;;12.55;100.00
39265;BME280;42646;51.910;7.724;2023-11-19T03:58:41;100078.94;;;12.53;100.00
39265;BME280;42646;51.910;7.724;2023-11-19T04:01:11;100072.78;;;12.52;100.00
39265;BME280;42646;51.910;7.724;2023-11-19T04:03:40;100066.44;;;12.53;100.00
39265;BME280;42646;51.910;7.724;2023-11-19T04:06:11;100060.09;;;12.54;100.00
39265;BME280;42646;51.910;7.724;2023-11-19T04:08:38;100059.06;;;12.55;100.00
39265;BME280;42646;51.910;7.724;2023-11-19T04:11:07;100061.56;;;12.49;100.00
39265;BME280;42646;51.910;7.724;2023-11-19T04:13:36;100054.75;;;12.46;100.00
39265;BME280;42646;51.910;7.724;2023-11-19T04:16:04;100067.56;;;12.43;100.00
39265;BME280;42646;51.910;7.724;2023-11-19T04:18:32;100057.06;;;12.41;100.00
39265;BME280;42646;51.910;7.724;2023-11-19T04:21:00;100056.91;;;12.35;100.00
39265;BME280;42646;51.910;7.724;2023-11-19T04:23:27;100054.72;;;12.30;100.00
39265;BME280;42646;51.910;7.724;2023-11-19T04:25:55;100067.72;;;12.25;100.00
39265;BME280;42646;51.910;7.724;2023-11-19T04:28:38;100063.69;;;12.21;100.00
39265;BME280;42646;51.910;7.724;2023-11-19T04:31:05;100066.69;;;12.18;100.00
39265;BME280;42646;51.910;7.724;2023-11-19T04:33:33;100074.19;;;12.14;100.00
39265;BME280;42646;51.910;7.724;2023-11-19T04:36:01;100075.53;;;12.10;100.00
39265;BME280;42646;51.910;7.724;2023-11-19T04:38:29;100073.69;;;12.11;100.00
39265;BME280;42646;51.910;7.724;2023-11-19T04:40:57;100067.00;;;12.07;100.00
39265;BME280;42646;51.910;7.724;2023-11-19T04:43:25;100053.34;;;12.10;100.00
39265;BME280;42646;51.910;7.724;2023-11-19T04:45:54;100049.66;;;12.02;100.00
39265;BME280;42646;51.910;7.724;2023-11-19T04:48:21;100049.81;;;12.01;100.00
39265;BME280;42646;51.910;7.724;2023-11-19T04:50:49;100055.31;;;11.99;100.00
39265;BME280;42646;51.910;7.724;2023-11-19T04:53:17;100058.28;;;11.96;100.00
39265;BME280;42646;51.910;7.724;2023-11-19T04:55:45;100059.31;;;11.95;100.00
39265;BME280;42646;51.910;7.724;2023-11-19T04:58:13;100063.31;;;11.99;100.00
39265;BME280;42646;51.910;7.724;2023-11-19T05:00:40;100063.50;;;11.98;100.00
39265;BME280;42646;51.910;7.724;2023-11-19T05:03:09;100060.81;;;11.98;100.00
39265;BME280;42646;51.910;7.724;2023-11-19T05:05:37;100074.16;;;11.98;100.00
39265;BME280;42646;51.910;7.724;2023-11-19T05:08:05;100070.97;;;11.94;100.00
39265;BME280;42646;51.910;7.724;2023-11-19T05:10:33;100068.28;;;11.94;100.00
39265;BME280;42646;51.910;7.724;2023-11-19T05:13:00;100071.13;;;11.93;100.00
39265;BME280;42646;51.910;7.724;2023-11-19T05:15:28;100069.47;;;11.92;100.00
39265;BME280;42646;51.910;7.724;2023-11-19T05:17:56;100075.78;;;11.91;100.00
39265;BME280;42646;51.910;7.724;2023-11-19T05:20:25;100085.50;;;12.08;100.00
39265;BME280;42646;51.910;7.724;2023-11-19T05:22:52;100078.47;;;11.99;100.00
39265;BME280;42646;51.910;7.724;2023-11-19T05:25:20;100079.44;;;11.90;100.00
39265;BME280;42646;51.910;7.724;2023-11-19T05:27:48;100093.75;;;11.89;100.00
39265;BME280;42646;51.910;7.724;2023-11-19T05:30:15;100093.94;;;11.87;100.00
39265;BME280;42646;51.910;7.724;2023-11-19T05:32:43;100087.59;;;11.88;100.00
39265;BME280;42646;51.910;7.724;2023-11-19T05:35:11;100084.09;;;11.88;100.00
39265;BME280;42646;51.910;7.724;2023-11-19T05:37:40;100082.09;;;11.90;100.00
39265;BME280;42646;51.910;7.724;2023-11-19T05:40:08;100086.41;;;11.83;100.00
39265;BME280;42646;51.910;7.724;2023-11-19T05:42:42;100084.56;;;11.83;100.00
39265;BME280;42646;51.910;7.724;2023-11-19T05:45:11;100084.88;;;11.80;100.00
39265;BME280;42646;51.910;7.724;2023-11-19T05:47:39;100093.84;;;11.79;100.00
39265;BME280;42646;51.910;7.724;2023-11-19T05:50:09;100077.84;;;11.79;100.00
39265;BME280;42646;51.910;7.724;2023-11-19T05:52:36;100078.25;;;11.84;100.00
39265;BME280;42646;51.910;7.724;2023-11-19T05:55:06;100081.84;;;11.75;100.00
39265;BME280;42646;51.910;7.724;2023-11-19T05:57:36;100086.84;;;11.78;100.00
39265;BME280;42646;51.910;7.724;2023-11-19T06:00:08;100086.50;;;11.73;100.00
39265;BME280;42646;51.910;7.724;2023-11-19T06:02:37;100079.19;;;11.75;100.00
39265;BME280;42646;51.910;7.724;2023-11-19T06:05:05;100086.81;;;11.70;100.00
39265;BME280;42646;51.910;7.724;2023-11-19T06:07:33;100090.69;;;11.75;100.00
39265;BME280;42646;51.910;7.724;2023-11-19T06:10:02;100073.69;;;11.76;100.00
39265;BME280;42646;51.910;7.724;2023-11-19T06:12:33;100084.34;;;11.76;100.00
39265;BME280;42646;51.910;7.724;2023-11-19T06:15:05;100090.22;;;11.80;100.00
39265;BME280;42646;51.910;7.724;2023-11-19T06:17:34;100097.00;;;11.74;100.00
39265;BME280;42646;51.910;7.724;2023-11-19T06:20:04;100103.31;;;11.73;100.00
39265;BME280;42646;51.910;7.724;2023-11-19T06:22:31;100100.50;;;11.75;100.00
39265;BME280;42646;51.910;7.724;2023-11-19T06:24:59;100109.81;;;11.71;100.00
39265;BME280;42646;51.910;7.724;2023-11-19T06:27:27;100101.63;;;11.64;100.00
39265;BME280;42646;51.910;7.724;2023-11-19T06:29:56;100106.84;;;11.74;100.00
39265;BME280;42646;51.910;7.724;2023-11-19T06:32:24;100104.84;;;11.76;100.00
39265;BME280;42646;51.910;7.724;2023-11-19T06:34:51;100108.81;;;11.72;100.00
39265;BME280;42646;51.910;7.724;2023-11-19T06:37:19;100109.16;;;11.69;100.00
39265;BME280;42646;51.910;7.724;2023-11-19T06:39:47;100116.13;;;11.70;100.00
39265;BME280;42646;51.910;7.724;2023-11-19T06:42:15;100113.63;;;11.68;100.00
39265;BME280;42646;51.910;7.724;2023-11-19T06:44:43;100124.72;;;11.82;100.00
39265;BME280;42646;51.910;7.724;2023-11-19T06:47:13;100125.56;;;11.82;100.00
39265;BME280;42646;51.910;7.724;2023-11-19T06:49:43;100129.13;;;11.73;100.00
39265;BME280;42646;51.910;7.724;2023-11-19T06:52:11;100139.13;;;11.71;100.00
39265;BME280;42646;51.910;7.724;2023-11-19T06:54:39;100132.31;;;11.76;100.00
39265;BME280;42646;51.910;7.724;2023-11-19T06:57:06;100130.97;;;11.72;100.00
39265;BME280;42646;51.910;7.724;2023-11-19T06:59:35;100138.13;;;11.72;100.00
39265;BME280;42646;51.910;7.724;2023-11-19T07:02:03;100140.59;;;11.65;100.00
39265;BME280;42646;51.910;7.724;2023-11-19T07:04:32;100148.41;;;11.67;100.00
39265;BME280;42646;51.910;7.724;2023-11-19T07:07:00;100139.38;;;11.60;100.00
39265;BME280;42646;51.910;7.724;2023-11-19T07:09:28;100136.88;;;11.58;100.00
39265;BME280;42646;51.910;7.724;2023-11-19T07:11:55;100147.53;;;11.58;100.00
39265;BME280;42646;51.910;7.724;2023-11-19T07:14:23;100146.53;;;11.59;100.00
39265;BME280;42646;51.910;7.724;2023-11-19T07:16:51;100150.94;;;11.68;100.00
39265;BME280;42646;51.910;7.724;2023-11-19T07:19:20;100141.25;;;11.67;100.00
39265;BME280;42646;51.910;7.724;2023-11-19T07:21:49;100143.78;;;11.69;100.00
39265;BME280;42646;51.910;7.724;2023-11-19T07:24:17;100137.97;;;11.73;100.00
39265;BME280;42646;51.910;7.724;2023-11-19T07:26:46;100144.91;;;11.66;100.00
39265;BME280;42646;51.910;7.724;2023-11-19T07:29:14;100144.09;;;11.66;100.00
39265;BME280;42646;51.910;7.724;2023-11-19T07:31:55;100154.38;;;11.61;100.00
39265;BME280;42646;51.910;7.724;2023-11-19T07:34:24;100160.16;;;11.56;100.00
39265;BME280;42646;51.910;7.724;2023-11-19T07:36:53;100160.34;;;11.55;100.00
39265;BME280;42646;51.910;7.724;2023-11-19T07:39:21;100169.03;;;11.57;100.00
39265;BME280;42646;51.910;7.724;2023-11-19T07:41:48;100157.38;;;11.58;100.00
39265;BME280;42646;51.910;7.724;2023-11-19T07:44:16;100154.00;;;11.56;100.00
39265;BME280;42646;51.910;7.724;2023-11-19T07:46:44;100172.66;;;11.56;100.00
39265;BME280;42646;51.910;7.724;2023-11-19T07:49:12;100180.19;;;11.60;100.00
39265;BME280;42646;51.910;7.724;2023-11-19T07:51:40;100181.19;;;11.59;100.00
39265;BME280;42646;51.910;7.724;2023-11-19T07:54:09;100184.69;;;11.60;100.00
39265;BME280;42646;51.910;7.724;2023-11-19T07:56:37;100189.47;;;11.56;100.00
39265;BME280;42646;51.910;7.724;2023-11-19T07:59:04;100188.50;;;11.57;100.00
39265;BME280;42646;51.910;7.724;2023-11-19T08:01:31;100196.69;;;11.64;100.00
39265;BME280;42646;51.910;7.724;2023-11-19T08:03:59;100194.09;;;11.72;100.00
39265;BME280;42646;51.910;7.724;2023-11-19T08:06:28;100198.56;;;11.71;100.00
39265;BME280;42646;51.910;7.724;2023-11-19T08:08:56;100193.09;;;11.73;100.00
39265;BME280;42646;51.910;7.724;2023-11-19T08:11:25;100200.78;;;11.76;100.00
39265;BME280;42646;51.910;7.724;2023-11-19T08:13:53;100201.91;;;11.73;100.00
39265;BME280;42646;51.910;7.724;2023-11-19T08:16:20;100193.25;;;11.71;100.00
39265;BME280;42646;51.910;7.724;2023-11-19T08:18:48;100191.59;;;11.70;100.00
39265;BME280;42646;51.910;7.724;2023-11-19T08:21:16;100197.50;;;11.82;100.00
39265;BME280;42646;51.910;7.724;2023-11-19T08:23:43;100204.34;;;11.85;100.00
39265;BME280;42646;51.910;7.724;2023-11-19T08:26:11;100201.19;;;11.81;100.00
39265;BME280;42646;51.910;7.724;2023-11-19T08:28:40;100192.63;;;11.77;100.00
39265;BME280;42646;51.910;7.724;2023-11-19T08:31:08;100203.94;;;11.80;100.00
39265;BME280;42646;51.910;7.724;2023-11-19T08:33:36;100202.97;;;11.81;100.00
39265;BME280;42646;51.910;7.724;2023-11-19T08:36:04;100196.50;;;11.83;100.00
39265;BME280;42646;51.910;7.724;2023-11-19T08:38:31;100210.84;;;11.82;100.00
39265;BME280;42646;51.910;7.724;2023-11-19T08:40:59;100217.00;;;11.83;100.00
39265;BME280;42646;51.910;7.724;2023-11-19T08:43:27;100213.25;;;11.93;100.00
39265;BME280;42646;51.910;7.724;2023-11-19T08:45:56;100212.66;;;12.08;100.00
39265;BME280;42646;51.910;7.724;2023-11-19T08:48:24;100215.44;;;11.98;100.00
39265;BME280;42646;51.910;7.724;2023-11-19T08:50:52;100221.75;;;11.97;100.00
39265;BME280;42646;51.910;7.724;2023-11-19T08:53:20;100229.81;;;12.05;100.00
39265;BME280;42646;51.910;7.724;2023-11-19T08:55:48;100216.59;;;12.03;100.00
39265;BME280;42646;51.910;7.724;2023-11-19T08:58:16;100210.31;;;12.05;100.00
39265;BME280;42646;51.910;7.724;2023-11-19T09:00:44;100222.75;;;11.96;100.00
39265;BME280;42646;51.910;7.724;2023-11-19T09:03:13;100227.44;;;12.02;100.00
39265;BME280;42646;51.910;7.724;2023-11-19T09:05:41;100223.63;;;12.05;100.00
39265;BME280;42646;51.910;7.724;2023-11-19T09:08:09;100213.09;;;12.03;100.00
39265;BME280;42646;51.910;7.724;2023-11-19T09:10:37;100226.13;;;12.06;100.00
39265;BME280;42646;51.910;7.724;2023-11-19T09:13:05;100225.66;;;12.11;100.00
39265;BME280;42646;51.910;7.724;2023-11-19T09:15:34;100221.94;;;12.03;100.00
39265;BME280;42646;51.910;7.724;2023-11-19T09:18:03;100228.63;;;12.08;100.00
39265;BME280;42646;51.910;7.724;2023-11-19T09:20:32;100232.00;;;12.10;100.00
39265;BME280;42646;51.910;7.724;2023-11-19T09:23:04;100228.47;;;12.09;100.00
39265;BME280;42646;51.910;7.724;2023-11-19T09:25:32;100238.19;;;12.18;100.00
39265;BME280;42646;51.910;7.724;2023-11-19T09:28:03;100226.16;;;12.14;100.00
39265;BME280;42646;51.910;7.724;2023-11-19T09:30:31;100227.69;;;12.17;100.00
39265;BME280;42646;51.910;7.724;2023-11-19T09:33:00;100234.06;;;12.24;100.00
39265;BME280;42646;51.910;7.724;2023-11-19T09:35:28;100233.72;;;12.27;100.00
39265;BME280;42646;51.910;7.724;2023-11-19T09:37:58;100238.22;;;12.26;100.00
39265;BME280;42646;51.910;7.724;2023-11-19T09:40:29;100231.75;;;12.29;100.00
39265;BME280;42646;51.910;7.724;2023-11-19T09:42:58;100223.22;;;12.25;100.00
39265;BME280;42646;51.910;7.724;2023-11-19T09:45:27;100231.41;;;12.32;100.00
39265;BME280;42646;51.910;7.724;2023-11-19T09:47:56;100227.44;;;12.28;100.00
39265;BME280;42646;51.910;7.724;2023-11-19T09:50:25;100231.78;;;12.37;100.00
39265;BME280;42646;51.910;7.724;2023-11-19T09:52:52;100226.41;;;12.29;100.00
39265;BME280;42646;51.910;7.724;2023-11-19T09:55:21;100228.91;;;12.30;100.00
39265;BME280;42646;51.910;7.724;2023-11-19T09:57:51;100205.63;;;12.41;100.00
39265;BME280;42646;51.910;7.724;2023-11-19T10:00:21;100220.09;;;12.38;100.00
39265;BME280;42646;51.910;7.724;2023-11-19T10:02:49;100215.94;;;12.36;100.00
39265;BME280;42646;51.910;7.724;2023-11-19T10:05:19;100219.66;;;12.51;100.00
39265;BME280;42646;51.910;7.724;2023-11-19T10:07:48;100209.31;;;12.40;100.00
39265;BME280;42646;51.910;7.724;2023-11-19T10:10:16;100206.47;;;12.41;100.00
39265;BME280;42646;51.910;7.724;2023-11-19T10:12:46;100215.81;;;12.45;100.00
39265;BME280;42646;51.910;7.724;2023-11-19T10:15:19;100209.31;;;12.48;100.00
39265;BME280;42646;51.910;7.724;2023-11-19T10:17:47;100209.63;;;12.45;100.00
39265;BME280;42646;51.910;7.724;2023-11-19T10:20:15;100212.81;;;12.48;100.00
39265;BME280;42646;51.910;7.724;2023-11-19T10:22:43;100210.50;;;12.45;100.00
39265;BME280;42646;51.910;7.724;2023-11-19T10:25:22;100205.16;;;12.53;100.00
39265;BME280;42646;51.910;7.724;2023-11-19T10:27:51;100206.31;;;12.51;100.00
39265;BME280;42646;51.910;7.724;2023-11-19T10:30:21;100210.06;;;12.74;100.00
39265;BME280;42646;51.910;7.724;2023-11-19T10:33:05;100211.34;;;12.62;100.00
39265;BME280;42646;51.910;7.724;2023-11-19T10:35:33;100211.88;;;12.66;100.00
39265;BME280;42646;51.910;7.724;2023-11-19T10:38:13;100208.03;;;12.68;100.00
39265;BME280;42646;51.910;7.724;2023-11-19T10:40:41;100191.19;;;12.60;100.00
39265;BME280;42646;51.910;7.724;2023-11-19T10:43:10;100196.69;;;12.58;100.00
39265;BME280;42646;51.910;7.724;2023-11-19T10:45:39;100200.19;;;12.59;100.00
39265;BME280;42646;51.910;7.724;2023-11-19T10:48:07;100200.19;;;12.59;100.00
39265;BME280;42646;51.910;7.724;2023-11-19T10:50:35;100195.84;;;12.57;100.00
39265;BME280;42646;51.910;7.724;2023-11-19T10:53:04;100201.34;;;12.56;100.00
39265;BME280;42646;51.910;7.724;2023-11-19T10:55:33;100193.03;;;12.59;100.00
39265;BME280;42646;51.910;7.724;2023-11-19T10:58:03;100189.50;;;12.59;100.00
39265;BME280;42646;51.910;7.724;2023-11-19T11:00:38;100190.34;;;12.67;100.00
39265;BME280;42646;51.910;7.724;2023-11-19T11:03:10;100191.69;;;12.63;100.00
39265;BME280;42646;51.910;7.724;2023-11-19T11:05:38;100188.03;;;12.72;100.00
39265;BME280;42646;51.910;7.724;2023-11-19T11:08:06;100185.53;;;12.71;100.00
39265;BME280;42646;51.910;7.724;2023-11-19T11:10:39;100178.00;;;12.66;100.00
39265;BME280;42646;51.910;7.724;2023-11-19T11:13:24;100189.53;;;12.67;100.00
39265;BME280;42646;51.910;7.724;2023-11-19T11:15:56;100193.50;;;12.63;100.00
39265;BME280;42646;51.910;7.724;2023-11-19T11:18:25;100196.06;;;12.80;100.00
39265;BME280;42646;51.910;7.724;2023-11-19T11:20:56;100189.53;;;12.67;100.00
39265;BME280;42646;51.910;7.724;2023-11-19T11:24:00;100188.22;;;12.71;100.00
39265;BME280;42646;51.910;7.724;2023-11-19T11:26:53;100177.53;;;12.71;100.00
39265;BME280;42646;51.910;7.724;2023-11-19T11:29:29;100181.56;;;12.75;100.00
39265;BME280;42646;51.910;7.724;2023-11-19T11:32:10;100175.22;;;12.76;100.00
39265;BME280;42646;51.910;7.724;2023-11-19T11:35:00;100190.22;;;12.77;100.00
39265;BME280;42646;51.910;7.724;2023-11-19T11:37:33;100182.75;;;12.89;100.00
39265;BME280;42646;51.910;7.724;2023-11-19T11:40:02;100184.56;;;12.88;100.00
39265;BME280;42646;51.910;7.724;2023-11-19T11:42:36;100184.22;;;12.91;100.00
39265;BME280;42646;51.910;7.724;2023-11-19T11:45:05;100188.41;;;12.94;100.00
39265;BME280;42646;51.910;7.724;2023-11-19T11:48:10;100182.41;;;13.00;100.00
39265;BME280;42646;51.910;7.724;2023-11-19T11:51:02;100178.91;;;12.99;100.00
39265;BME280;42646;51.910;7.724;2023-11-19T11:53:30;100178.22;;;12.89;100.00
39265;BME280;42646;51.910;7.724;2023-11-19T11:55:58;100186.41;;;12.88;100.00
39265;BME280;42646;51.910;7.724;2023-11-19T11:58:32;100174.56;;;12.90;100.00
39265;BME280;42646;51.910;7.724;2023-11-19T12:01:03;100172.53;;;12.92;100.00
39265;BME280;42646;51.910;7.724;2023-11-19T12:03:34;100175.38;;;12.91;100.00
39265;BME280;42646;51.910;7.724;2023-11-19T12:06:02;100173.91;;;12.88;100.00
39265;BME280;42646;51.910;7.724;2023-11-19T12:08:30;100176.22;;;12.83;100.00
39265;BME280;42646;51.910;7.724;2023-11-19T12:10:58;100171.72;;;12.83;100.00
39265;BME280;42646;51.910;7.724;2023-11-19T12:13:46;100174.38;;;12.83;100.00
39265;BME280;42646;51.910;7.724;2023-11-19T12:16:15;100164.72;;;12.82;100.00
39265;BME280;42646;51.910;7.724;2023-11-19T12:18:44;100158.34;;;12.92;100.00
39265;BME280;42646;51.910;7.724;2023-11-19T12:21:27;100155.22;;;12.88;100.00
39265;BME280;42646;51.910;7.724;2023-11-19T12:23:55;100164.22;;;12.87;100.00
39265;BME280;42646;51.910;7.724;2023-11-19T12:26:34;100160.06;;;12.93;100.00
39265;BME280;42646;51.910;7.724;2023-11-19T12:29:02;100152.88;;;12.93;100.00
39265;BME280;42646;51.910;7.724;2023-11-19T12:31:35;100152.53;;;12.96;100.00
39265;BME280;42646;51.910;7.724;2023-11-19T12:34:08;100152.72;;;12.95;100.00
39265;BME280;42646;51.910;7.724;2023-11-19T12:36:40;100140.00;;;12.97;100.00
39265;BME280;42646;51.910;7.724;2023-11-19T12:39:11;100140.00;;;12.97;100.00
39265;BME280;42646;51.910;7.724;2023-11-19T12:41:52;100146.34;;;12.96;100.00
39265;BME280;42646;51.910;7.724;2023-11-19T12:44:21;100150.34;;;12.92;100.00
39265;BME280;42646;51.910;7.724;2023-11-19T12:47:02;100151.69;;;12.96;100.00
39265;BME280;42646;51.910;7.724;2023-11-19T12:49:32;100145.69;;;12.94;100.00
39265;BME280;42646;51.910;7.724;2023-11-19T12:52:00;100153.53;;;12.95;100.00
39265;BME280;42646;51.910;7.724;2023-11-19T12:54:34;100140.03;;;12.89;100.00